createdAt,value
2018-12-06T00:01:15.738Z,21.47
2018-12-06T00:03:43.278Z,22.37
2018-12-06T00:06:10.791Z,20.30
2018-12-06T00:08:38.344Z,22.00
2018-12-06T00:11:05.816Z,23.57
2018-12-06T00:13:33.398Z,25.13
2018-12-06T00:16:00.813Z,24.73
2018-12-06T00:18:28.310Z,25.93
2018-12-06T00:20:55.851Z,27.37
2018-12-06T00:23:23.367Z,25.33
2018-12-06T00:28:24.570Z,22.83
2018-12-06T00:30:52.051Z,25.73
2018-12-06T00:33:19.528Z,27.67
2018-12-06T00:35:47.096Z,32.67
2018-12-06T00:38:14.608Z,25.77
2018-12-06T00:40:42.949Z,29.93
2018-12-06T00:43:10.438Z,31.37
2018-12-06T00:45:37.925Z,31.10
2018-12-06T00:48:05.385Z,30.43
2018-12-06T00:50:32.781Z,29.33
2018-12-06T00:53:00.342Z,26.97
2018-12-06T00:55:27.725Z,27.77
2018-12-06T00:57:55.193Z,29.63
2018-12-06T01:00:22.605Z,28.27
2018-12-06T01:02:49.997Z,28.33
2018-12-06T01:05:17.905Z,28.53
2018-12-06T01:07:45.403Z,31.70
2018-12-06T01:10:12.825Z,29.07
2018-12-06T01:12:40.222Z,26.93
2018-12-06T01:15:07.701Z,27.83
2018-12-06T01:17:35.105Z,31.17
2018-12-06T01:20:02.511Z,30.07
2018-12-06T01:22:29.959Z,32.60
2018-12-06T01:24:57.360Z,29.83
2018-12-06T01:27:24.774Z,28.93
2018-12-06T01:29:56.532Z,32.60
2018-12-06T01:32:23.966Z,28.87
2018-12-06T01:34:51.500Z,28.70
2018-12-06T01:37:19.005Z,26.93
2018-12-06T01:39:46.429Z,25.87
2018-12-06T01:42:13.885Z,27.27
2018-12-06T01:44:41.358Z,29.03
2018-12-06T01:47:08.738Z,29.33
2018-12-06T01:49:36.189Z,25.13
2018-12-06T01:52:03.709Z,22.73
2018-12-06T01:54:31.347Z,25.10
2018-12-06T01:56:58.801Z,23.40
2018-12-06T01:59:26.253Z,22.10
2018-12-06T02:01:53.735Z,21.70
2018-12-06T02:04:21.206Z,25.83
2018-12-06T02:06:48.710Z,24.70
2018-12-06T02:09:16.122Z,21.53
2018-12-06T02:11:43.579Z,23.07
2018-12-06T02:14:11.031Z,23.97
2018-12-06T02:16:38.494Z,21.43
2018-12-06T02:19:06.003Z,22.27
2018-12-06T02:21:33.591Z,22.47
2018-12-06T02:24:01.092Z,22.07
2018-12-06T02:26:28.493Z,24.10
2018-12-06T02:28:56.556Z,23.20
2018-12-06T02:31:24.049Z,21.90
2018-12-06T02:33:51.558Z,25.40
2018-12-06T02:36:18.983Z,21.93
2018-12-06T02:38:46.509Z,23.60
2018-12-06T02:41:13.936Z,23.13
2018-12-06T02:43:41.395Z,25.30
2018-12-06T02:46:08.838Z,23.17
2018-12-06T02:48:36.578Z,23.70
2018-12-06T02:51:04.018Z,22.90
2018-12-06T02:53:31.615Z,23.63
2018-12-06T02:55:59.100Z,22.47
2018-12-06T02:58:26.968Z,25.20
2018-12-06T03:00:54.459Z,23.60
2018-12-06T03:03:21.898Z,24.80
2018-12-06T03:05:49.292Z,24.30
2018-12-06T03:08:16.696Z,28.10
2018-12-06T03:10:44.333Z,27.80
2018-12-06T03:13:11.803Z,27.77
2018-12-06T03:15:40.320Z,31.23
2018-12-06T03:18:07.863Z,28.80
2018-12-06T03:20:35.418Z,27.60
2018-12-06T03:23:02.916Z,28.97
2018-12-06T03:25:36.993Z,26.37
2018-12-06T03:28:04.425Z,27.93
2018-12-06T03:30:32.672Z,29.77
2018-12-06T03:33:00.264Z,26.30
2018-12-06T03:35:27.671Z,31.27
2018-12-06T03:37:55.109Z,32.43
2018-12-06T03:40:22.686Z,29.97
2018-12-06T03:42:50.183Z,31.90
2018-12-06T03:45:17.600Z,27.63
2018-12-06T03:47:45.056Z,29.30
2018-12-06T03:50:12.454Z,28.63
2018-12-06T03:52:39.903Z,25.93
2018-12-06T03:55:07.371Z,28.07
2018-12-06T03:57:34.826Z,27.20
2018-12-06T04:00:02.259Z,25.20
2018-12-06T04:02:29.893Z,30.37
2018-12-06T04:04:57.311Z,31.23
2018-12-06T04:07:25.266Z,24.67
2018-12-06T04:09:52.763Z,27.60
2018-12-06T04:12:20.147Z,28.37
2018-12-06T04:14:47.603Z,30.73
2018-12-06T04:17:15.240Z,29.80
2018-12-06T04:19:42.773Z,31.63
2018-12-06T04:22:11.071Z,28.50
2018-12-06T04:24:38.609Z,27.73
2018-12-06T04:27:06.087Z,25.53
2018-12-06T04:29:33.733Z,29.83
2018-12-06T04:32:01.172Z,29.37
2018-12-06T04:34:28.630Z,28.63
2018-12-06T04:36:56.051Z,27.43
2018-12-06T04:39:23.444Z,29.63
2018-12-06T04:41:50.896Z,26.47
2018-12-06T04:44:18.317Z,28.53
2018-12-06T04:46:45.841Z,30.43
2018-12-06T04:49:13.362Z,29.07
2018-12-06T04:51:40.805Z,28.63
2018-12-06T04:54:08.355Z,27.40
2018-12-06T04:56:35.795Z,31.80
2018-12-06T04:59:03.269Z,26.43
2018-12-06T05:01:30.801Z,30.40
2018-12-06T05:03:58.280Z,27.00
2018-12-06T05:06:25.717Z,27.90
2018-12-06T05:08:53.133Z,25.40
2018-12-06T05:11:20.622Z,27.03
2018-12-06T05:13:48.150Z,23.77
2018-12-06T05:16:15.530Z,26.53
2018-12-06T05:18:42.932Z,25.53
2018-12-06T05:21:10.350Z,27.97
2018-12-06T05:23:37.746Z,27.30
2018-12-06T05:26:05.196Z,24.27
2018-12-06T05:28:32.718Z,28.27
2018-12-06T05:31:00.208Z,24.30
2018-12-06T05:33:27.645Z,23.67
2018-12-06T05:35:55.077Z,24.30
2018-12-06T05:38:22.495Z,24.83
2018-12-06T05:40:49.991Z,26.20
2018-12-06T05:43:17.554Z,22.83
2018-12-06T05:45:46.005Z,25.23
2018-12-06T05:48:13.498Z,23.97
2018-12-06T05:50:41.181Z,23.00
2018-12-06T05:53:08.777Z,19.53
2018-12-06T05:55:36.249Z,20.57
2018-12-06T05:58:03.705Z,24.30
2018-12-06T06:00:31.190Z,18.80
2018-12-06T06:02:58.642Z,16.33
2018-12-06T06:05:26.148Z,23.07
2018-12-06T06:07:53.552Z,17.67
2018-12-06T06:10:20.965Z,21.53
2018-12-06T06:12:48.390Z,18.73
2018-12-06T06:15:15.766Z,20.53
2018-12-06T06:17:43.173Z,18.70
2018-12-06T06:20:10.710Z,17.43
2018-12-06T06:22:38.164Z,20.80
2018-12-06T06:25:06.260Z,21.73
2018-12-06T06:27:33.698Z,17.43
2018-12-06T06:30:01.723Z,14.67
2018-12-06T06:32:29.156Z,22.53
2018-12-06T06:34:56.539Z,16.33
2018-12-06T06:37:24.593Z,16.30
2018-12-06T06:39:52.099Z,17.60
2018-12-06T06:42:19.551Z,17.20
2018-12-06T06:44:47.083Z,17.97
2018-12-06T06:47:14.691Z,17.13
2018-12-06T06:49:42.397Z,17.73
2018-12-06T06:52:09.857Z,11.93
2018-12-06T06:54:37.408Z,14.90
2018-12-06T06:57:04.857Z,16.93
2018-12-06T06:59:32.290Z,13.63
2018-12-06T07:02:00.395Z,14.13
2018-12-06T07:04:28.313Z,12.63
2018-12-06T07:06:56.239Z,10.37
2018-12-06T07:09:23.996Z,13.63
2018-12-06T07:11:51.856Z,13.50
2018-12-06T07:14:19.399Z,15.17
2018-12-06T07:16:48.522Z,8.20
2018-12-06T07:19:16.147Z,6.90
2018-12-06T07:21:43.702Z,11.73
2018-12-06T07:24:11.446Z,9.50
2018-12-06T07:26:38.915Z,6.43
2018-12-06T07:29:06.601Z,4.67
2018-12-06T07:31:34.053Z,9.10
2018-12-06T07:34:01.535Z,5.43
2018-12-06T07:36:28.982Z,6.60
2018-12-06T07:38:56.634Z,7.73
2018-12-06T07:41:24.018Z,5.37
2018-12-06T07:43:52.694Z,5.53
2018-12-06T07:46:20.206Z,7.80
2018-12-06T07:48:47.999Z,8.30
2018-12-06T07:51:15.453Z,9.10
2018-12-06T07:53:44.050Z,5.90
2018-12-06T07:56:12.312Z,8.87
2018-12-06T07:58:39.781Z,5.73
2018-12-06T08:01:07.332Z,7.33
2018-12-06T08:03:34.745Z,8.93
2018-12-06T08:06:02.240Z,6.10
2018-12-06T08:08:29.697Z,4.60
2018-12-06T08:10:57.187Z,7.57
2018-12-06T08:13:24.642Z,8.33
2018-12-06T08:15:52.282Z,10.13
2018-12-06T08:18:19.710Z,8.57
2018-12-06T08:20:47.601Z,7.47
2018-12-06T08:23:15.772Z,9.17
2018-12-06T08:25:43.264Z,7.23
2018-12-06T08:28:11.981Z,7.17
2018-12-06T08:30:39.468Z,8.73
2018-12-06T08:33:06.965Z,6.97
2018-12-06T08:35:34.466Z,7.67
2018-12-06T08:38:01.900Z,7.93
2018-12-06T08:40:29.418Z,10.53
2018-12-06T08:42:56.871Z,8.60
2018-12-06T08:45:24.581Z,9.50
2018-12-06T08:47:52.157Z,10.17
2018-12-06T08:50:21.207Z,10.07
2018-12-06T08:52:48.915Z,11.00
2018-12-06T08:55:17.512Z,7.53
2018-12-06T08:57:45.118Z,8.40
2018-12-06T09:00:12.547Z,8.17
2018-12-06T09:02:40.162Z,9.93
2018-12-06T09:05:07.842Z,12.00
2018-12-06T09:07:35.727Z,7.97
2018-12-06T09:10:03.464Z,9.47
2018-12-06T09:12:30.933Z,11.97
2018-12-06T09:15:00.064Z,8.03
2018-12-06T09:17:27.606Z,9.47
2018-12-06T09:19:55.218Z,9.10
2018-12-06T09:22:24.419Z,12.90
2018-12-06T09:24:52.071Z,9.13
2018-12-06T09:27:19.565Z,8.40
2018-12-06T09:29:47.069Z,8.23
2018-12-06T09:32:15.152Z,9.13
2018-12-06T09:34:42.770Z,5.43
2018-12-06T09:37:10.431Z,7.53
2018-12-06T09:39:37.899Z,7.77
2018-12-06T09:42:05.469Z,11.27
2018-12-06T09:44:32.944Z,13.13
2018-12-06T09:47:00.482Z,11.87
2018-12-06T09:49:28.016Z,10.27
2018-12-06T09:51:55.479Z,13.27
2018-12-06T09:54:23.002Z,12.07
2018-12-06T09:57:23.324Z,9.27
2018-12-06T09:59:50.851Z,12.43
2018-12-06T10:02:18.327Z,7.47
2018-12-06T10:04:45.794Z,10.93
2018-12-06T10:07:13.426Z,9.77
2018-12-06T10:09:41.015Z,11.07
2018-12-06T10:12:08.434Z,15.87
2018-12-06T10:14:35.948Z,14.50
2018-12-06T10:17:03.437Z,12.47
2018-12-06T10:19:30.964Z,12.77
2018-12-06T10:21:59.084Z,13.43
2018-12-06T10:24:26.619Z,11.37
2018-12-06T10:26:54.474Z,13.07
2018-12-06T10:29:22.040Z,10.33
2018-12-06T10:31:51.290Z,13.10
2018-12-06T10:34:18.761Z,12.67
2018-12-06T10:36:47.220Z,16.53
2018-12-06T10:39:14.799Z,15.43
2018-12-06T10:41:42.421Z,16.23
2018-12-06T10:44:10.754Z,14.87
2018-12-06T10:46:38.207Z,12.27
2018-12-06T10:49:05.679Z,13.37
2018-12-06T10:51:48.838Z,19.67
2018-12-06T10:54:16.469Z,17.63
2018-12-06T10:56:43.996Z,18.63
2018-12-06T10:59:11.568Z,12.80
2018-12-06T11:01:44.353Z,15.10
2018-12-06T11:04:11.802Z,15.03
2018-12-06T11:06:39.370Z,15.57
2018-12-06T11:09:07.549Z,12.00
2018-12-06T11:11:35.007Z,10.90
2018-12-06T11:14:02.565Z,17.23
2018-12-06T11:16:29.989Z,12.27
2018-12-06T11:18:57.590Z,14.13
2018-12-06T11:21:25.153Z,9.10
2018-12-06T11:23:52.608Z,12.27
2018-12-06T11:26:20.105Z,11.50
2018-12-06T11:28:47.632Z,14.40
2018-12-06T11:31:15.124Z,11.97
2018-12-06T11:33:42.561Z,13.23
2018-12-06T11:36:10.075Z,13.20
2018-12-06T11:38:37.541Z,13.53
2018-12-06T11:41:05.099Z,12.33
2018-12-06T11:43:32.585Z,11.13
2018-12-06T11:46:00.005Z,11.20
2018-12-06T11:48:27.563Z,11.93
2018-12-06T11:50:55.060Z,12.07
2018-12-06T11:53:22.594Z,11.43
2018-12-06T11:56:24.549Z,18.47
2018-12-06T11:58:52.002Z,13.87
2018-12-06T12:01:23.278Z,12.43
2018-12-06T12:03:50.740Z,9.23
2018-12-06T12:06:18.230Z,11.47
2018-12-06T12:08:45.939Z,11.80
2018-12-06T12:11:14.048Z,11.13
2018-12-06T12:13:41.627Z,12.57
2018-12-06T12:16:09.220Z,14.33
2018-12-06T12:18:36.790Z,8.63
2018-12-06T12:21:04.315Z,14.13
2018-12-06T12:23:31.721Z,14.47
2018-12-06T12:25:59.188Z,15.93
2018-12-06T12:28:26.737Z,10.40
2018-12-06T12:30:54.269Z,13.57
2018-12-06T12:33:21.810Z,14.73
2018-12-06T12:35:49.273Z,13.37
2018-12-06T12:38:16.873Z,11.63
2018-12-06T12:40:44.363Z,12.97
2018-12-06T12:43:12.573Z,16.67
2018-12-06T12:45:40.006Z,16.37
2018-12-06T12:48:07.460Z,8.70
2018-12-06T12:50:34.942Z,13.23
2018-12-06T12:53:02.391Z,13.03
2018-12-06T12:55:29.918Z,14.27
2018-12-06T12:57:57.339Z,15.47
2018-12-06T13:00:24.814Z,17.50
2018-12-06T13:02:52.313Z,12.40
2018-12-06T13:05:19.860Z,14.77
2018-12-06T13:07:47.390Z,17.20
2018-12-06T13:10:14.808Z,11.10
2018-12-06T13:12:42.190Z,14.50
2018-12-06T13:15:09.574Z,15.80
2018-12-06T13:17:37.039Z,15.90
2018-12-06T13:20:04.564Z,17.40
2018-12-06T13:22:31.983Z,15.40
2018-12-06T13:24:59.443Z,16.27
2018-12-06T13:27:26.826Z,15.63
2018-12-06T13:29:54.393Z,14.07
2018-12-06T13:32:21.918Z,15.70
2018-12-06T13:34:49.545Z,18.67
2018-12-06T13:37:17.195Z,12.30
2018-12-06T13:39:44.666Z,15.20
2018-12-06T13:42:12.158Z,14.87
2018-12-06T13:44:39.724Z,15.77
2018-12-06T13:47:07.209Z,15.93
2018-12-06T13:49:34.701Z,17.97
2018-12-06T13:52:02.265Z,14.57
2018-12-06T13:54:29.802Z,16.90
2018-12-06T13:56:57.400Z,12.33
2018-12-06T13:59:24.918Z,11.07
2018-12-06T14:01:52.520Z,10.97
2018-12-06T14:04:19.976Z,13.60
2018-12-06T14:06:47.472Z,10.77
2018-12-06T14:09:14.938Z,12.07
2018-12-06T14:11:42.418Z,11.03
2018-12-06T14:14:09.860Z,6.80
2018-12-06T14:16:37.274Z,8.57
2018-12-06T14:19:04.764Z,9.63
2018-12-06T14:21:32.263Z,7.07
2018-12-06T14:23:59.756Z,8.10
2018-12-06T14:26:27.155Z,7.50
2018-12-06T14:28:54.688Z,5.53
2018-12-06T14:31:22.227Z,7.60
2018-12-06T14:33:49.651Z,6.03
2018-12-06T14:36:17.078Z,7.90
2018-12-06T14:38:44.523Z,5.30
2018-12-06T14:41:12.075Z,5.97
2018-12-06T14:43:39.540Z,5.90
2018-12-06T14:46:06.947Z,6.20
2018-12-06T14:48:34.535Z,5.97
2018-12-06T14:51:01.920Z,7.33
2018-12-06T14:53:29.563Z,6.43
2018-12-06T14:55:57.049Z,7.17
2018-12-06T14:58:24.601Z,5.93
2018-12-06T15:00:52.035Z,6.13
2018-12-06T15:03:19.594Z,5.97
2018-12-06T15:05:47.056Z,6.50
2018-12-06T15:08:15.422Z,5.73
2018-12-06T15:10:42.899Z,4.53
2018-12-06T15:13:10.522Z,5.97
2018-12-06T15:15:38.033Z,5.60
2018-12-06T15:18:05.508Z,5.90
2018-12-06T15:20:33.023Z,6.20
2018-12-06T15:23:00.484Z,5.17
2018-12-06T15:25:28.003Z,6.03
2018-12-06T15:27:55.824Z,5.00
2018-12-06T15:30:23.249Z,5.23
2018-12-06T15:32:50.663Z,8.07
2018-12-06T15:35:18.122Z,6.67
2018-12-06T15:37:45.604Z,7.57
2018-12-06T15:40:13.113Z,5.13
2018-12-06T15:42:40.598Z,5.17
2018-12-06T15:45:08.171Z,5.33
2018-12-06T15:47:35.714Z,4.80
2018-12-06T15:50:04.215Z,5.43
2018-12-06T15:52:31.684Z,5.23
2018-12-06T15:54:59.187Z,4.50
2018-12-06T15:57:39.862Z,4.80
2018-12-06T16:00:09.527Z,7.80
2018-12-06T16:02:37.118Z,5.50
2018-12-06T16:05:04.747Z,4.87
2018-12-06T16:07:32.381Z,6.67
2018-12-06T16:10:00.243Z,5.07
2018-12-06T16:12:28.104Z,6.23
2018-12-06T16:14:55.785Z,6.87
2018-12-06T16:17:23.381Z,6.83
2018-12-06T16:19:50.936Z,8.83
2018-12-06T16:22:18.393Z,6.47
2018-12-06T16:24:46.006Z,7.83
2018-12-06T16:27:13.470Z,8.33
2018-12-06T16:29:40.931Z,6.33
2018-12-06T16:32:08.538Z,8.97
2018-12-06T16:34:35.989Z,7.57
2018-12-06T16:37:03.486Z,8.20
2018-12-06T16:39:31.019Z,10.00
2018-12-06T16:41:58.520Z,9.30
2018-12-06T16:44:26.053Z,7.87
2018-12-06T16:46:53.652Z,6.23
2018-12-06T16:49:21.184Z,9.57
2018-12-06T16:51:48.860Z,8.03
2018-12-06T16:54:16.472Z,8.43
2018-12-06T16:56:44.159Z,9.80
2018-12-06T16:59:11.747Z,11.50
2018-12-06T17:01:39.302Z,9.37
2018-12-06T17:04:07.232Z,8.17
2018-12-06T17:06:34.987Z,9.07
2018-12-06T17:09:04.496Z,8.53
2018-12-06T17:11:32.060Z,7.93
2018-12-06T17:14:00.257Z,9.73
2018-12-06T17:16:27.740Z,9.93
2018-12-06T17:18:55.195Z,8.07
2018-12-06T17:21:22.683Z,11.77
2018-12-06T17:23:50.178Z,9.83
2018-12-06T17:26:17.667Z,7.90
2018-12-06T17:28:45.199Z,10.00
2018-12-06T17:31:12.607Z,8.07
2018-12-06T17:33:40.395Z,7.80
2018-12-06T17:36:08.088Z,8.37
2018-12-06T17:38:35.531Z,12.87
2018-12-06T17:41:03.262Z,9.37
2018-12-06T17:43:30.776Z,9.13
2018-12-06T17:45:58.251Z,9.80
2018-12-06T17:48:26.111Z,8.43
2018-12-06T17:50:54.069Z,10.63
2018-12-06T17:53:22.578Z,8.17
2018-12-06T17:55:52.443Z,7.57
2018-12-06T17:58:20.924Z,7.67
2018-12-06T18:00:48.908Z,7.50
2018-12-06T18:03:16.528Z,8.00
2018-12-06T18:05:44.567Z,8.07
2018-12-06T18:08:11.987Z,7.33
2018-12-06T18:10:39.777Z,10.27
2018-12-06T18:13:07.444Z,12.03
2018-12-06T18:15:35.071Z,9.30
2018-12-06T18:18:02.608Z,11.63
2018-12-06T18:20:30.226Z,10.00
2018-12-06T18:22:57.788Z,8.60
2018-12-06T18:25:25.317Z,12.23
2018-12-06T18:27:52.957Z,6.53
2018-12-06T18:30:21.259Z,5.53
2018-12-06T18:32:48.794Z,8.47
2018-12-06T18:35:16.380Z,7.93
2018-12-06T18:37:45.596Z,5.17
2018-12-06T18:40:13.449Z,3.87
2018-12-06T18:42:41.198Z,6.77
2018-12-06T18:45:10.540Z,4.60
2018-12-06T18:47:37.999Z,7.17
2018-12-06T18:50:05.804Z,4.43
2018-12-06T18:52:33.738Z,5.00
2018-12-06T18:55:01.432Z,4.73
2018-12-06T18:57:30.119Z,6.97
2018-12-06T18:59:57.883Z,7.60
2018-12-06T19:02:26.236Z,10.93
2018-12-06T19:04:53.912Z,8.53
2018-12-06T19:07:22.830Z,11.37
2018-12-06T19:09:50.823Z,11.70
2018-12-06T19:12:18.909Z,9.13
2018-12-06T19:14:46.451Z,11.87
2018-12-06T19:17:14.930Z,10.67
2018-12-06T19:19:43.909Z,13.00
2018-12-06T19:22:11.819Z,10.60
2018-12-06T19:24:39.734Z,16.80
2018-12-06T19:27:07.767Z,18.70
2018-12-06T19:29:35.321Z,16.73
2018-12-06T19:32:02.819Z,22.13
2018-12-06T19:34:30.594Z,14.83
2018-12-06T19:36:58.715Z,22.03
2018-12-06T19:39:26.459Z,27.80
2018-12-06T19:41:54.110Z,22.33
2018-12-06T19:44:21.903Z,27.20
2018-12-06T19:46:49.476Z,23.67
2018-12-06T19:49:17.308Z,19.83
2018-12-06T19:51:44.895Z,23.33
2018-12-06T19:54:12.610Z,22.53
2018-12-06T19:56:40.364Z,24.73
2018-12-06T19:59:08.253Z,26.00
2018-12-06T20:01:35.698Z,25.10
2018-12-06T20:04:03.159Z,18.83
2018-12-06T20:06:30.963Z,21.30
2018-12-06T20:08:58.961Z,22.00
2018-12-06T20:11:26.486Z,28.97
2018-12-06T20:13:53.974Z,26.90
2018-12-06T20:16:21.544Z,23.03
2018-12-06T20:18:49.295Z,23.23
2018-12-06T20:21:17.151Z,26.37
2018-12-06T20:23:44.829Z,26.27
2018-12-06T20:26:12.605Z,26.23
2018-12-06T20:28:40.506Z,26.27
2018-12-06T20:31:08.299Z,25.53
2018-12-06T20:33:35.851Z,25.23
2018-12-06T20:36:03.305Z,30.70
2018-12-06T20:38:30.739Z,29.70
2018-12-06T20:40:58.223Z,32.57
2018-12-06T20:43:29.908Z,32.90
2018-12-06T20:45:57.336Z,35.83
2018-12-06T20:48:24.818Z,37.13
2018-12-06T20:50:52.314Z,38.63
2018-12-06T20:53:19.867Z,36.47
2018-12-06T20:55:47.350Z,42.27
2018-12-06T20:58:15.406Z,37.37
2018-12-06T21:00:43.120Z,35.93
2018-12-06T21:03:10.612Z,39.13
2018-12-06T21:05:38.082Z,30.63
2018-12-06T21:08:06.423Z,31.73
2018-12-06T21:10:33.977Z,38.00
2018-12-06T21:13:01.439Z,38.63
2018-12-06T21:15:28.932Z,41.40
2018-12-06T21:17:57.094Z,29.83
2018-12-06T21:20:24.540Z,30.43
2018-12-06T21:22:51.984Z,36.20
2018-12-06T21:25:19.608Z,32.20
2018-12-06T21:27:47.157Z,36.07
2018-12-06T21:30:14.606Z,27.47
2018-12-06T21:32:42.096Z,30.17
2018-12-06T21:35:09.593Z,30.87
2018-12-06T21:37:37.231Z,30.57
2018-12-06T21:40:05.774Z,25.13
2018-12-06T21:42:33.442Z,24.17
2018-12-06T21:45:00.896Z,18.57
2018-12-06T21:47:28.344Z,20.27
2018-12-06T21:49:55.882Z,20.33
2018-12-06T21:52:23.374Z,19.43
2018-12-06T21:54:51.035Z,17.17
2018-12-06T21:57:18.494Z,18.93
2018-12-06T21:59:45.950Z,16.03
2018-12-06T22:02:19.039Z,14.63
2018-12-06T22:04:47.284Z,15.60
2018-12-06T22:07:14.794Z,14.40
2018-12-06T22:09:43.013Z,14.47
2018-12-06T22:12:10.542Z,11.00
2018-12-06T22:14:37.985Z,12.37
2018-12-06T22:17:06.078Z,12.50
2018-12-06T22:19:33.508Z,12.80
2018-12-06T22:22:08.111Z,14.57
2018-12-06T22:24:35.818Z,13.33
2018-12-06T22:27:03.272Z,8.97
2018-12-06T22:29:30.768Z,11.30
2018-12-06T22:31:58.251Z,9.13
2018-12-06T22:34:26.000Z,9.93
2018-12-06T22:36:53.497Z,7.97
2018-12-06T22:39:20.964Z,10.90
2018-12-06T22:41:48.377Z,7.83
2018-12-06T22:44:15.872Z,13.47
2018-12-06T22:46:43.392Z,7.13
2018-12-06T22:49:10.842Z,8.23
2018-12-06T22:51:38.296Z,7.40
2018-12-06T22:54:06.575Z,9.37
2018-12-06T22:56:34.729Z,9.73
2018-12-06T22:59:02.318Z,8.60
2018-12-06T23:01:35.997Z,10.50
2018-12-06T23:04:05.799Z,11.33
2018-12-06T23:06:33.225Z,10.70
2018-12-06T23:09:00.613Z,12.07
2018-12-06T23:11:28.614Z,11.70
2018-12-06T23:13:56.673Z,9.97
2018-12-06T23:16:24.082Z,8.70
2018-12-06T23:18:51.757Z,9.70
2018-12-06T23:21:19.230Z,11.97
2018-12-06T23:23:46.669Z,6.97
2018-12-06T23:26:14.118Z,6.07
2018-12-06T23:29:05.372Z,8.70
2018-12-06T23:31:32.841Z,12.30
2018-12-06T23:34:01.440Z,13.77
2018-12-06T23:36:28.987Z,9.87
2018-12-06T23:38:56.400Z,10.80
2018-12-06T23:41:24.187Z,15.67
2018-12-06T23:43:52.684Z,11.60
2018-12-06T23:46:20.080Z,16.83
2018-12-06T23:48:47.612Z,10.20
2018-12-06T23:51:20.639Z,12.33
2018-12-06T23:53:48.093Z,11.43
2018-12-06T23:56:15.552Z,10.73
2018-12-06T23:58:43.146Z,13.53
